Time;durP1;ratioP1;P1;durP2;ratioP2;P2;SDS_P1;SDS_P2;PMS_P1;PMS_P2;Temp;Humidity;BMP_temperature;BMP_pressure;BME280_temperature;BME280_humidity;BME280_pressure;Samples;Min_cycle;Max_cycle;Signal;HPM_P1;HPM_P2
2023/05/14 00:01:27;;;;;;;;;;;;;;;12.98;81.00;99680.03;4165776;34;36112;-93
2023/05/14 00:03:55;;;;;;;;;;;;;;;12.81;82.75;99680.28;4153624;34;34640;-94
2023/05/14 00:06:23;;;;;;;;;;;;;;;12.70;84.69;99669.97;4165968;34;33100;-93
2023/05/14 00:08:50;;;;;;;;;;;;;;;12.94;83.66;99672.28;4165739;34;34105;-93
2023/05/14 00:11:19;;;;;;;;;;;;;;;13.04;82.71;99668.59;4153505;34;35880;-93
2023/05/14 00:13:47;;;;;;;;;;;;;;;12.85;84.43;99668.91;4165712;34;35494;-93
2023/05/14 00:16:15;;;;;;;;;;;;;;;13.05;83.87;99658.13;4153519;34;33663;-94
2023/05/14 00:18:43;;;;;;;;;;;;;;;12.98;82.90;99653.03;4153497;34;34959;-94
2023/05/14 00:21:11;;;;;;;;;;;;;;;12.74;86.89;99659.47;4165624;34;34822;-93
2023/05/14 00:23:39;;;;;;;;;;;;;;;13.06;84.33;99659.88;4153677;34;34799;-93
2023/05/14 00:26:07;;;;;;;;;;;;;;;12.91;85.20;99657.47;4153455;34;33617;-94
2023/05/14 00:28:36;;;;;;;;;;;;;;;12.78;84.59;99658.56;4165488;34;34216;-94
2023/05/14 00:31:04;;;;;;;;;;;;;;;12.50;86.04;99645.88;4165471;34;36031;-94
2023/05/14 00:33:32;;;;;;;;;;;;;;;13.00;84.34;99640.78;4165557;34;35181;-92
2023/05/14 00:36:00;;;;;;;;;;;;;;;12.66;85.42;99636.94;4153230;34;34016;-93
2023/05/14 00:38:28;;;;;;;;;;;;;;;12.70;85.79;99642.97;4142326;34;33798;-92
2023/05/14 00:40:56;;;;;;;;;;;;;;;12.37;86.25;99632.16;4164486;34;36147;-93
2023/05/14 00:43:24;;;;;;;;;;;;;;;12.58;85.14;99637.94;4164370;34;34296;-93
2023/05/14 00:45:52;;;;;;;;;;;;;;;12.53;86.98;99630.19;4165595;34;33537;-93
2023/05/14 00:48:21;;;;;;;;;;;;;;;12.56;87.07;99630.13;4153229;34;34203;-94
2023/05/14 00:50:49;;;;;;;;;;;;;;;12.34;87.12;99626.94;4165336;34;36036;-95
2023/05/14 00:53:20;;;;;;;;;;;;;;;12.40;87.36;99626.00;4164316;34;34659;-94
2023/05/14 00:55:49;;;;;;;;;;;;;;;12.50;85.72;99625.84;4153310;34;33179;-93
2023/05/14 00:58:17;;;;;;;;;;;;;;;12.27;88.63;99620.09;4152624;34;34218;-93
2023/05/14 01:00:45;;;;;;;;;;;;;;;12.62;86.45;99619.59;4142064;34;34842;-94
2023/05/14 01:03:13;;;;;;;;;;;;;;;12.81;84.62;99609.75;4165468;34;34324;-94
2023/05/14 01:06:04;;;;;;;;;;;;;;;12.39;85.88;99617.31;4165374;34;33313;-93
2023/05/14 01:08:51;;;;;;;;;;;;;;;12.14;87.90;99606.31;4153179;34;34096;-93
2023/05/14 01:11:21;;;;;;;;;;;;;;;12.18;87.73;99612.34;4165435;34;35786;-93
2023/05/14 01:13:56;;;;;;;;;;;;;;;12.62;84.08;99611.75;4153133;34;34823;-94
2023/05/14 01:16:25;;;;;;;;;;;;;;;12.37;85.24;99608.62;4165504;34;33514;-93
2023/05/14 01:18:53;;;;;;;;;;;;;;;12.37;85.41;99606.03;4142206;34;34197;-94
2023/05/14 01:21:39;;;;;;;;;;;;;;;12.25;85.55;99603.59;4142057;34;36075;-95
2023/05/14 01:24:07;;;;;;;;;;;;;;;12.31;85.50;99603.47;4153265;34;34700;-93
2023/05/14 01:26:35;;;;;;;;;;;;;;;12.37;84.51;99598.19;4152886;34;32558;-94
2023/05/14 01:29:23;;;;;;;;;;;;;;;12.22;85.91;99596.63;4152943;34;34919;-92
2023/05/14 01:31:53;;;;;;;;;;;;;;;12.58;83.87;99596.13;4152809;34;34416;-95
2023/05/14 01:34:21;;;;;;;;;;;;;;;12.40;84.48;99592.06;4153029;34;34500;-94
2023/05/14 01:36:50;;;;;;;;;;;;;;;12.30;85.10;99584.34;4130738;34;32711;-94
2023/05/14 01:39:18;;;;;;;;;;;;;;;12.41;84.89;99584.19;4152981;34;34094;-94
2023/05/14 01:41:46;;;;;;;;;;;;;;;12.62;82.83;99587.41;4152979;34;34096;-94
2023/05/14 01:44:14;;;;;;;;;;;;;;;12.72;82.17;99573.28;4153054;34;34638;-94
2023/05/14 01:46:42;;;;;;;;;;;;;;;12.49;83.26;99578.84;4152916;34;34015;-94
2023/05/14 01:49:10;;;;;;;;;;;;;;;12.27;84.87;99568.72;4165126;34;34076;-95
2023/05/14 01:51:38;;;;;;;;;;;;;;;12.24;85.19;99560.91;4152893;34;35325;-93
2023/05/14 01:54:06;;;;;;;;;;;;;;;12.20;85.62;99559.25;4165344;34;34656;-93
2023/05/14 01:56:34;;;;;;;;;;;;;;;12.40;83.78;99560.72;4152855;34;33618;-94
2023/05/14 01:59:02;;;;;;;;;;;;;;;12.40;83.28;99552.88;4152852;34;34044;-93
2023/05/14 02:01:30;;;;;;;;;;;;;;;12.46;83.94;99551.03;4130542;34;35554;-95
2023/05/14 02:03:59;;;;;;;;;;;;;;;12.44;83.25;99552.81;4152843;34;34940;-94
2023/05/14 02:06:27;;;;;;;;;;;;;;;12.49;82.66;99561.44;4165037;34;33380;-93
2023/05/14 02:08:55;;;;;;;;;;;;;;;12.68;80.35;99550.72;4130689;34;32946;-94
2023/05/14 02:11:23;;;;;;;;;;;;;;;12.24;83.25;99555.69;4164835;34;35314;-93
2023/05/14 02:13:51;;;;;;;;;;;;;;;12.94;79.39;99552.91;4153006;34;35160;-94
2023/05/14 02:16:19;;;;;;;;;;;;;;;12.28;83.28;99556.53;4163946;34;33363;-94
2023/05/14 02:18:47;;;;;;;;;;;;;;;12.63;82.95;99558.59;4130467;34;33801;-92
2023/05/14 02:21:15;;;;;;;;;;;;;;;12.74;81.65;99554.97;4152797;34;35106;-93
2023/05/14 02:23:43;;;;;;;;;;;;;;;13.16;77.56;99547.28;4152709;34;35060;-93
2023/05/14 02:26:11;;;;;;;;;;;;;;;12.95;79.38;99549.38;4152784;34;34356;-94
2023/05/14 02:28:39;;;;;;;;;;;;;;;12.96;78.54;99551.13;4152527;34;34920;-92
2023/05/14 02:31:07;;;;;;;;;;;;;;;12.55;80.90;99550.03;4164767;34;35297;-93
2023/05/14 02:33:35;;;;;;;;;;;;;;;12.45;82.52;99548.44;4152735;34;34779;-93
2023/05/14 02:36:03;;;;;;;;;;;;;;;12.59;80.96;99546.47;4164835;34;33663;-93
2023/05/14 02:38:31;;;;;;;;;;;;;;;12.53;80.81;99541.38;4152537;34;32808;-91
2023/05/14 02:40:59;;;;;;;;;;;;;;;12.70;79.57;99544.56;4152533;34;35661;-92
2023/05/14 02:43:27;;;;;;;;;;;;;;;12.57;79.21;99543.03;4163812;34;34766;-92
2023/05/14 02:45:55;;;;;;;;;;;;;;;12.67;79.57;99543.75;4152451;34;31936;-94
2023/05/14 02:48:23;;;;;;;;;;;;;;;12.89;78.27;99549.50;4164807;34;34556;-95
2023/05/14 02:50:51;;;;;;;;;;;;;;;12.48;81.31;99546.66;4163623;34;35167;-92
2023/05/14 02:53:19;;;;;;;;;;;;;;;12.36;81.65;99543.37;4164693;34;35071;-92
2023/05/14 02:55:47;;;;;;;;;;;;;;;12.53;80.54;99541.38;4164853;34;33635;-93
2023/05/14 02:58:15;;;;;;;;;;;;;;;12.73;79.61;99541.03;4164693;34;33914;-94
2023/05/14 03:00:43;;;;;;;;;;;;;;;12.77;78.86;99539.25;4164666;34;35417;-94
2023/05/14 03:03:11;;;;;;;;;;;;;;;12.76;79.35;99537.50;4163872;34;34516;-93
2023/05/14 03:05:39;;;;;;;;;;;;;;;12.74;79.35;99534.94;4152572;34;34046;-93
2023/05/14 03:08:07;;;;;;;;;;;;;;;13.05;77.72;99529.19;4152202;34;33297;-92
2023/05/14 03:10:35;;;;;;;;;;;;;;;12.64;79.43;99534.22;4152340;34;36071;-92
2023/05/14 03:13:04;;;;;;;;;;;;;;;12.42;82.03;99533.66;4141388;34;35170;-95
2023/05/14 03:15:31;;;;;;;;;;;;;;;12.71;80.82;99537.59;4164578;34;33734;-92
2023/05/14 03:17:59;;;;;;;;;;;;;;;12.84;79.48;99530.41;4141093;34;33171;-93
2023/05/14 03:20:28;;;;;;;;;;;;;;;12.53;79.95;99530.94;4164558;34;35108;-94
2023/05/14 03:22:55;;;;;;;;;;;;;;;12.69;80.06;99527.16;4163806;34;34844;-94
2023/05/14 03:25:24;;;;;;;;;;;;;;;12.78;79.82;99527.91;4164507;34;34376;-93
2023/05/14 03:27:52;;;;;;;;;;;;;;;12.58;80.88;99520.37;4164367;34;33814;-92
2023/05/14 03:30:20;;;;;;;;;;;;;;;12.16;82.90;99521.03;4164465;34;35002;-93
2023/05/14 03:32:48;;;;;;;;;;;;;;;12.50;81.24;99520.53;4164336;34;35072;-92
2023/05/14 03:35:17;;;;;;;;;;;;;;;12.54;81.36;99521.34;4152369;34;33338;-93
2023/05/14 03:37:44;;;;;;;;;;;;;;;12.33;82.51;99518.16;4164606;34;34203;-92
2023/05/14 03:40:12;;;;;;;;;;;;;;;12.62;81.96;99528.16;4152075;34;36038;-95
2023/05/14 03:42:42;;;;;;;;;;;;;;;12.86;79.00;99529.47;4164308;34;34513;-94
2023/05/14 03:45:10;;;;;;;;;;;;;;;13.18;77.15;99524.59;4152089;34;34236;-95
2023/05/14 03:47:37;;;;;;;;;;;;;;;12.60;80.06;99527.31;4163242;34;32612;-92
2023/05/14 03:50:06;;;;;;;;;;;;;;;12.26;82.60;99517.38;4164219;34;35349;-91
2023/05/14 03:52:34;;;;;;;;;;;;;;;12.31;82.38;99512.94;4164501;34;35327;-93
2023/05/14 03:55:02;;;;;;;;;;;;;;;12.55;80.71;99512.59;4152061;34;34199;-92
2023/05/14 03:57:30;;;;;;;;;;;;;;;12.85;79.79;99506.00;4152133;34;33948;-93
2023/05/14 03:59:58;;;;;;;;;;;;;;;12.60;80.82;99509.03;4164240;34;35122;-93
2023/05/14 04:02:26;;;;;;;;;;;;;;;12.62;80.68;99511.63;4163113;34;34716;-93
2023/05/14 04:04:54;;;;;;;;;;;;;;;12.57;81.23;99514.31;4152081;34;33387;-93
2023/05/14 04:07:22;;;;;;;;;;;;;;;12.70;80.12;99518.44;4140658;34;33408;-95
2023/05/14 04:09:52;;;;;;;;;;;;;;;12.74;78.66;99508.81;4163137;34;35014;-93
2023/05/14 04:12:20;;;;;;;;;;;;;;;12.68;79.80;99509.75;4163986;34;34781;-94
2023/05/14 04:14:48;;;;;;;;;;;;;;;13.04;77.88;99522.22;4162848;34;33050;-95
2023/05/14 04:17:16;;;;;;;;;;;;;;;12.52;79.78;99513.50;4151713;34;34150;-94
2023/05/14 04:19:45;;;;;;;;;;;;;;;12.36;82.14;99506.81;4163740;34;33222;-93
2023/05/14 04:22:12;;;;;;;;;;;;;;;12.85;78.58;99516.47;4140619;34;35427;-94
2023/05/14 04:24:40;;;;;;;;;;;;;;;12.58;79.55;99508.19;4163819;34;33534;-93
2023/05/14 04:27:08;;;;;;;;;;;;;;;12.65;78.61;99503.72;4163782;34;33794;-92
2023/05/14 04:29:36;;;;;;;;;;;;;;;12.81;77.44;99510.44;4163553;34;35675;-96
2023/05/14 04:32:04;;;;;;;;;;;;;;;13.24;74.94;99503.56;4163629;34;34392;-95
2023/05/14 04:34:32;;;;;;;;;;;;;;;12.77;76.89;99507.88;4164465;34;33615;-94
2023/05/14 04:37:02;;;;;;;;;;;;;;;12.85;76.94;99496.41;4165684;34;34911;-93
2023/05/14 04:39:30;;;;;;;;;;;;;;;12.86;76.60;99507.72;4153245;34;35334;-93
2023/05/14 04:41:58;;;;;;;;;;;;;;;12.98;76.76;99507.50;4165607;34;34521;-93
2023/05/14 04:44:26;;;;;;;;;;;;;;;12.91;77.26;99505.87;4164459;34;32279;-92
2023/05/14 04:46:54;;;;;;;;;;;;;;;13.07;75.38;99515.19;4165510;34;34164;-92
2023/05/14 04:49:22;;;;;;;;;;;;;;;12.77;77.05;99511.34;4153063;34;35533;-93
2023/05/14 04:51:50;;;;;;;;;;;;;;;12.98;76.39;99517.97;4164479;34;35116;-95
2023/05/14 04:54:18;;;;;;;;;;;;;;;13.08;75.70;99514.28;4153259;34;33334;-93
2023/05/14 04:56:46;;;;;;;;;;;;;;;12.90;75.39;99509.41;4142321;34;34082;-93
2023/05/14 04:59:15;;;;;;;;;;;;;;;12.83;77.25;99505.16;4165396;34;34811;-92
2023/05/14 05:01:43;;;;;;;;;;;;;;;12.99;75.50;99503.13;4153067;34;33529;-93
2023/05/14 05:04:16;;;;;;;;;;;;;;;12.65;77.48;99502.00;4153396;34;34292;-94
2023/05/14 05:06:44;;;;;;;;;;;;;;;12.64;78.20;99507.25;4165433;34;34077;-93
2023/05/14 05:09:13;;;;;;;;;;;;;;;12.77;77.28;99498.28;4165294;34;35311;-93
2023/05/14 05:11:41;;;;;;;;;;;;;;;12.32;80.35;99501.62;4153078;34;34853;-92
2023/05/14 05:14:08;;;;;;;;;;;;;;;12.76;77.91;99493.09;4141904;34;33737;-95
2023/05/14 05:16:37;;;;;;;;;;;;;;;13.11;75.69;99495.06;4153180;34;34976;-94
2023/05/14 05:19:05;;;;;;;;;;;;;;;13.20;74.43;99499.25;4152983;34;36077;-93
2023/05/14 05:21:33;;;;;;;;;;;;;;;12.97;76.50;99497.06;4153174;34;33238;-93
2023/05/14 05:24:01;;;;;;;;;;;;;;;13.20;76.30;99499.25;4152886;34;31956;-96
2023/05/14 05:26:29;;;;;;;;;;;;;;;13.19;76.60;99492.31;4142085;34;34160;-93
2023/05/14 05:28:57;;;;;;;;;;;;;;;12.94;77.08;99495.41;4152676;34;35253;-93
2023/05/14 05:31:25;;;;;;;;;;;;;;;12.83;76.81;99492.09;4153149;34;34366;-95
2023/05/14 05:33:53;;;;;;;;;;;;;;;13.31;75.01;99491.25;4141984;34;32398;-93
2023/05/14 05:36:21;;;;;;;;;;;;;;;13.06;75.05;99489.09;4153143;34;34197;-93
2023/05/14 05:38:49;;;;;;;;;;;;;;;13.09;76.08;99495.12;4165128;34;36001;-94
2023/05/14 05:41:17;;;;;;;;;;;;;;;13.30;73.54;99492.97;4165733;34;34802;-94
2023/05/14 05:43:44;;;;;;;;;;;;;;;13.49;73.97;99488.28;4163572;34;33663;-92
2023/05/14 05:46:13;;;;;;;;;;;;;;;13.42;73.37;99492.75;4174567;34;34455;-92
2023/05/14 05:48:41;;;;;;;;;;;;;;;13.02;74.91;99493.50;4164955;34;34924;-91
2023/05/14 05:51:09;;;;;;;;;;;;;;;13.06;76.06;99499.53;4152562;34;33962;-91
2023/05/14 05:53:37;;;;;;;;;;;;;;;13.07;75.63;99496.03;4163833;34;34230;-91
2023/05/14 05:56:05;;;;;;;;;;;;;;;13.10;75.16;99495.97;4164912;34;33786;-92
2023/05/14 05:58:33;;;;;;;;;;;;;;;12.87;76.37;99510.31;4163514;34;35119;-91
2023/05/14 06:01:01;;;;;;;;;;;;;;;13.13;75.61;99505.50;4164930;34;35462;-93
2023/05/14 06:03:30;;;;;;;;;;;;;;;13.05;74.95;99503.88;4165009;34;33649;-91
2023/05/14 06:05:57;;;;;;;;;;;;;;;12.82;76.48;99506.06;4164969;34;34959;-92
2023/05/14 06:08:25;;;;;;;;;;;;;;;13.02;76.32;99509.19;4163732;34;35214;-93
2023/05/14 06:10:53;;;;;;;;;;;;;;;12.82;77.54;99511.28;4163694;34;34769;-91
2023/05/14 06:13:21;;;;;;;;;;;;;;;12.80;77.20;99515.69;4164932;34;33378;-93
2023/05/14 06:15:49;;;;;;;;;;;;;;;12.85;77.54;99512.09;4152451;34;33786;-92
2023/05/14 06:18:17;;;;;;;;;;;;;;;13.29;75.81;99512.19;4163401;34;35286;-92
2023/05/14 06:20:45;;;;;;;;;;;;;;;12.96;76.93;99511.91;4164726;34;34841;-92
2023/05/14 06:23:13;;;;;;;;;;;;;;;13.17;75.47;99512.41;4164739;34;33231;-92
2023/05/14 06:25:41;;;;;;;;;;;;;;;13.15;77.10;99515.06;4163662;34;33722;-91
2023/05/14 06:28:09;;;;;;;;;;;;;;;12.82;78.48;99516.50;4164553;34;35982;-92
2023/05/14 06:30:37;;;;;;;;;;;;;;;12.85;78.76;99511.25;4163625;34;34667;-91
2023/05/14 06:33:05;;;;;;;;;;;;;;;12.56;80.33;99503.88;4164670;34;34300;-92
2023/05/14 06:35:33;;;;;;;;;;;;;;;12.57;81.12;99506.47;4164747;34;33802;-92
2023/05/14 06:38:01;;;;;;;;;;;;;;;12.59;81.64;99509.91;4149859;34;33652;-94
2023/05/14 06:40:29;;;;;;;;;;;;;;;12.76;79.79;99511.38;4151265;34;34708;-92
2023/05/14 06:42:57;;;;;;;;;;;;;;;12.60;82.59;99497.72;4153519;34;33338;-93
2023/05/14 06:45:25;;;;;;;;;;;;;;;12.58;81.46;99500.34;4164784;34;35180;-94
2023/05/14 06:47:54;;;;;;;;;;;;;;;12.59;84.31;99494.25;4163549;34;35348;-93
2023/05/14 06:50:21;;;;;;;;;;;;;;;12.53;84.18;99494.34;4152319;34;33602;-94
2023/05/14 06:52:50;;;;;;;;;;;;;;;12.54;84.10;99488.22;4164717;34;33936;-95
2023/05/14 06:55:18;;;;;;;;;;;;;;;12.90;81.75;99489.34;4178959;34;33811;-95
2023/05/14 06:57:46;;;;;;;;;;;;;;;12.95;81.84;99484.03;4176102;34;35208;-93
2023/05/14 07:00:14;;;;;;;;;;;;;;;13.18;80.27;99487.97;4165424;34;34211;-92
2023/05/14 07:02:42;;;;;;;;;;;;;;;12.84;83.00;99488.59;4165630;34;32368;-92
2023/05/14 07:05:10;;;;;;;;;;;;;;;12.58;83.60;99484.66;4165519;34;33100;-93
2023/05/14 07:07:38;;;;;;;;;;;;;;;12.99;81.39;99475.25;4165699;34;35047;-92
2023/05/14 07:10:07;;;;;;;;;;;;;;;12.98;82.00;99465.69;4165550;34;34399;-93
2023/05/14 07:12:34;;;;;;;;;;;;;;;12.96;85.54;99467.47;4176810;34;33617;-92
2023/05/14 07:15:03;;;;;;;;;;;;;;;12.83;85.40;99466.84;4165464;34;33079;-93
2023/05/14 07:17:31;;;;;;;;;;;;;;;13.38;81.30;99461.50;4165710;34;35733;-93
2023/05/14 07:19:59;;;;;;;;;;;;;;;13.26;83.36;99466.03;4177682;34;35692;-93
2023/05/14 07:22:27;;;;;;;;;;;;;;;13.67;79.61;99471.31;4165512;34;32276;-92
2023/05/14 07:24:55;;;;;;;;;;;;;;;13.43;83.08;99457.88;4177842;34;34423;-93
2023/05/14 07:27:22;;;;;;;;;;;;;;;13.72;81.01;99458.16;4177747;34;35398;-93
2023/05/14 07:29:50;;;;;;;;;;;;;;;13.91;79.88;99461.25;4165411;34;33716;-93
2023/05/14 07:32:19;;;;;;;;;;;;;;;13.48;81.85;99457.75;4176885;34;33645;-92
2023/05/14 07:34:47;;;;;;;;;;;;;;;13.39;83.34;99458.81;4165189;34;33150;-93
2023/05/14 07:37:15;;;;;;;;;;;;;;;13.65;83.70;99463.50;4176753;34;35198;-93
2023/05/14 07:39:43;;;;;;;;;;;;;;;13.81;80.08;99453.56;4165323;34;34795;-94
2023/05/14 07:42:11;;;;;;;;;;;;;;;14.25;78.53;99455.22;4177833;34;33207;-93
2023/05/14 07:44:51;;;;;;;;;;;;;;;13.83;79.36;99450.91;4177540;34;33816;-93
2023/05/14 07:47:19;;;;;;;;;;;;;;;14.19;77.17;99448.38;4176790;34;35200;-94
2023/05/14 07:49:47;;;;;;;;;;;;;;;14.36;77.51;99448.78;4177932;34;35382;-93
2023/05/14 07:52:15;;;;;;;;;;;;;;;13.50;80.85;99450.78;4176672;34;33959;-93
2023/05/14 07:54:43;;;;;;;;;;;;;;;13.98;79.68;99445.34;4177817;34;34663;-93
2023/05/14 07:57:11;;;;;;;;;;;;;;;13.95;81.30;99441.94;4176633;34;36093;-93
2023/05/14 07:59:39;;;;;;;;;;;;;;;14.28;79.42;99439.44;4176497;34;34690;-93
2023/05/14 08:02:09;;;;;;;;;;;;;;;14.58;77.83;99433.44;4165447;34;33619;-94
2023/05/14 08:04:37;;;;;;;;;;;;;;;14.43;79.04;99425.94;4177624;34;34563;-93
2023/05/14 08:07:07;;;;;;;;;;;;;;;14.47;77.66;99430.22;4176415;34;35321;-93
2023/05/14 08:09:35;;;;;;;;;;;;;;;14.02;80.63;99425.19;4178194;34;35384;-93
2023/05/14 08:12:03;;;;;;;;;;;;;;;14.52;78.77;99415.22;4178371;34;31944;-94
2023/05/14 08:14:31;;;;;;;;;;;;;;;14.17;80.85;99413.47;4178201;34;34891;-93
2023/05/14 08:16:59;;;;;;;;;;;;;;;14.23;80.29;99405.47;4179287;34;35963;-94
2023/05/14 08:19:27;;;;;;;;;;;;;;;14.28;79.54;99411.47;4179170;34;34776;-94
2023/05/14 08:21:55;;;;;;;;;;;;;;;14.44;77.43;99408.47;4166907;34;34223;-93
2023/05/14 08:24:23;;;;;;;;;;;;;;;14.63;77.22;99401.00;4166971;34;34676;-94
2023/05/14 08:26:51;;;;;;;;;;;;;;;14.25;79.35;99394.97;4179250;34;35020;-94
2023/05/14 08:29:19;;;;;;;;;;;;;;;14.28;81.72;99394.91;4166530;34;35126;-95
2023/05/14 08:31:48;;;;;;;;;;;;;;;14.41;78.79;99389.28;4166923;34;33508;-94
2023/05/14 08:34:16;;;;;;;;;;;;;;;14.50;78.70;99393.44;4178040;34;32294;-95
2023/05/14 08:36:44;;;;;;;;;;;;;;;14.88;75.40;99385.50;4166931;34;33923;-94
2023/05/14 08:39:12;;;;;;;;;;;;;;;14.31;80.57;99386.94;4177971;34;35109;-94
2023/05/14 08:41:40;;;;;;;;;;;;;;;14.82;78.14;99385.66;4178181;34;33334;-94
2023/05/14 08:44:08;;;;;;;;;;;;;;;14.63;79.13;99385.28;4166917;34;34855;-94
2023/05/14 08:46:39;;;;;;;;;;;;;;;15.05;76.58;99385.00;4179047;34;35180;-94
2023/05/14 08:49:15;;;;;;;;;;;;;;;14.78;78.61;99379.62;4179145;34;34586;-94
2023/05/14 08:51:47;;;;;;;;;;;;;;;14.86;81.15;99377.69;4166679;34;32656;-95
2023/05/14 08:54:16;;;;;;;;;;;;;;;14.73;77.70;99379.75;4178008;34;33976;-95
2023/05/14 08:56:45;;;;;;;;;;;;;;;14.73;76.66;99382.38;4177980;34;35182;-95
2023/05/14 08:59:13;;;;;;;;;;;;;;;15.06;74.55;99386.75;4178961;34;35499;-94
2023/05/14 09:02:01;;;;;;;;;;;;;;;14.90;76.96;99387.16;4179038;34;33577;-95
2023/05/14 09:04:29;;;;;;;;;;;;;;;14.95;76.68;99387.03;4164312;34;34025;-94
2023/05/14 09:07:01;;;;;;;;;;;;;;;14.70;77.22;99392.09;4166764;34;34341;-96
2023/05/14 09:09:29;;;;;;;;;;;;;;;14.53;78.82;99395.12;4178960;34;34704;-96
2023/05/14 09:11:57;;;;;;;;;;;;;;;14.54;79.95;99392.47;4177842;34;33806;-94
2023/05/14 09:14:25;;;;;;;;;;;;;;;14.32;81.67;99381.69;4177945;34;34202;-94
2023/05/14 09:16:54;;;;;;;;;;;;;;;15.05;76.71;99387.62;4166931;34;35959;-95
2023/05/14 09:19:22;;;;;;;;;;;;;;;14.72;78.40;99379.81;4177181;34;34663;-95
2023/05/14 09:21:50;;;;;;;;;;;;;;;14.81;78.02;99371.69;4177814;34;34273;-95
2023/05/14 09:24:22;;;;;;;;;;;;;;;14.68;79.22;99383.41;4178840;34;34224;-96
2023/05/14 09:26:55;;;;;;;;;;;;;;;15.04;78.43;99370.19;4177762;34;35223;-95
2023/05/14 09:29:23;;;;;;;;;;;;;;;14.92;81.37;99360.91;4177617;34;34362;-95
2023/05/14 09:31:52;;;;;;;;;;;;;;;14.56;82.31;99353.97;4177752;34;33669;-93
2023/05/14 09:34:24;;;;;;;;;;;;;;;14.25;84.96;99348.69;4177797;34;33847;-94
2023/05/14 09:36:56;;;;;;;;;;;;;;;14.70;81.76;99350.16;4179084;34;35301;-95
2023/05/14 09:39:25;;;;;;;;;;;;;;;14.60;82.33;99349.56;4151454;34;34590;-94
2023/05/14 09:41:53;;;;;;;;;;;;;;;14.85;83.10;99344.47;4152953;34;33520;-95
2023/05/14 09:44:22;;;;;;;;;;;;;;;14.34;87.69;99331.88;4165180;34;34225;-95
2023/05/14 09:46:50;;;;;;;;;;;;;;;14.72;83.56;99335.25;4143532;34;34611;-93
2023/05/14 09:49:19;;;;;;;;;;;;;;;15.19;78.94;99330.37;4133308;34;35192;-93
2023/05/14 09:51:47;;;;;;;;;;;;;;;14.72;84.70;99332.66;4148672;34;33069;-93
2023/05/14 09:54:16;;;;;;;;;;;;;;;14.85;82.29;99334.00;4123261;34;34116;-96
2023/05/14 09:56:44;;;;;;;;;;;;;;;14.47;81.90;99322.78;4154178;34;35563;-95
2023/05/14 09:59:12;;;;;;;;;;;;;;;14.78;83.69;99317.56;4163291;34;35074;-95
2023/05/14 10:01:41;;;;;;;;;;;;;;;15.47;80.62;99304.16;4166679;34;34469;-94
2023/05/14 10:04:10;;;;;;;;;;;;;;;15.03;80.58;99295.88;4162555;34;34246;-94
2023/05/14 10:06:38;;;;;;;;;;;;;;;15.63;76.74;99293.19;4152616;34;33622;-96
2023/05/14 10:09:09;;;;;;;;;;;;;;;15.37;78.54;99294.91;4151827;34;34754;-94
2023/05/14 10:11:41;;;;;;;;;;;;;;;15.16;82.43;99280.66;4136501;34;33349;-95
2023/05/14 10:14:17;;;;;;;;;;;;;;;15.19;82.46;99261.34;4151191;34;34370;-96
2023/05/14 10:16:48;;;;;;;;;;;;;;;15.72;79.17;99264.88;4155652;34;35922;-94
2023/05/14 10:19:16;;;;;;;;;;;;;;;15.91;78.45;99254.63;4143768;34;33971;-94
2023/05/14 10:21:45;;;;;;;;;;;;;;;15.69;80.16;99236.09;4166641;34;33623;-94
2023/05/14 10:24:13;;;;;;;;;;;;;;;15.72;79.44;99233.38;4166973;34;34156;-94
2023/05/14 10:26:41;;;;;;;;;;;;;;;15.72;80.04;99232.50;4154496;34;34432;-95
2023/05/14 10:29:10;;;;;;;;;;;;;;;15.96;78.10;99230.00;4154201;34;34535;-95
2023/05/14 10:31:45;;;;;;;;;;;;;;;15.52;79.84;99241.06;4166262;34;33379;-94
2023/05/14 10:34:36;;;;;;;;;;;;;;;15.44;78.71;99262.31;4167467;34;34422;-95
2023/05/14 10:37:08;;;;;;;;;;;;;;;15.57;79.12;99254.87;4167912;34;35026;-93
2023/05/14 10:39:40;;;;;;;;;;;;;;;15.82;77.24;99254.09;4165241;34;35031;-94
2023/05/14 10:42:20;;;;;;;;;;;;;;;15.65;77.75;99242.38;4152375;34;32996;-93
2023/05/14 10:44:49;;;;;;;;;;;;;;;15.27;80.98;99252.31;4153041;34;33385;-95
2023/05/14 10:47:18;;;;;;;;;;;;;;;15.59;79.00;99242.56;4143771;34;35801;-94
2023/05/14 10:49:49;;;;;;;;;;;;;;;15.24;78.75;99249.78;4154522;34;34945;-95
2023/05/14 10:52:21;;;;;;;;;;;;;;;15.38;77.73;99248.50;4138845;34;32288;-95
2023/05/14 10:54:56;;;;;;;;;;;;;;;14.93;83.28;99249.88;4137767;34;34287;-94
2023/05/14 10:57:25;;;;;;;;;;;;;;;14.90;80.87;99244.75;4134093;34;33442;-94
2023/05/14 10:59:53;;;;;;;;;;;;;;;15.09;80.81;99248.53;4161148;34;34812;-92
2023/05/14 11:02:21;;;;;;;;;;;;;;;14.71;84.97;99247.03;4159501;34;33644;-94
2023/05/14 11:05:03;;;;;;;;;;;;;;;15.09;81.03;99245.03;4159190;34;34176;-94
2023/05/14 11:07:36;;;;;;;;;;;;;;;14.79;82.81;99245.06;4147932;34;35408;-95
2023/05/14 11:10:08;;;;;;;;;;;;;;;14.54;85.06;99232.63;4153600;34;34887;-94
2023/05/14 11:12:39;;;;;;;;;;;;;;;15.09;81.26;99229.31;4170006;34;34534;-94
2023/05/14 11:15:09;;;;;;;;;;;;;;;14.75;83.84;99220.72;4138449;34;34853;-95
2023/05/14 11:17:39;;;;;;;;;;;;;;;14.69;83.01;99227.88;4170712;34;35004;-95
2023/05/14 11:20:07;;;;;;;;;;;;;;;14.83;80.08;99235.34;4152578;34;34880;-94
2023/05/14 11:22:36;;;;;;;;;;;;;;;14.94;79.45;99230.63;4162693;34;33665;-95
2023/05/14 11:25:05;;;;;;;;;;;;;;;14.75;80.97;99232.94;4156934;34;32782;-94
2023/05/14 11:27:34;;;;;;;;;;;;;;;14.61;82.62;99222.84;4166983;34;36202;-94
2023/05/14 11:30:03;;;;;;;;;;;;;;;14.89;80.37;99225.50;4161230;34;34887;-94
2023/05/14 11:32:32;;;;;;;;;;;;;;;14.81;83.26;99226.63;4167535;34;33845;-93
2023/05/14 11:35:00;;;;;;;;;;;;;;;15.04;78.31;99224.19;4153284;34;35021;-93
2023/05/14 11:37:29;;;;;;;;;;;;;;;14.80;80.16;99231.03;4166404;34;34680;-93
2023/05/14 11:39:58;;;;;;;;;;;;;;;14.49;83.14;99237.16;4167513;34;34742;-93
2023/05/14 11:42:27;;;;;;;;;;;;;;;14.36;83.67;99225.28;4164606;34;33847;-93
2023/05/14 11:44:55;;;;;;;;;;;;;;;14.76;82.03;99230.25;4179265;34;34437;-93
2023/05/14 11:47:23;;;;;;;;;;;;;;;14.93;81.70;99221.03;4178960;34;35333;-92
2023/05/14 11:49:51;;;;;;;;;;;;;;;14.83;81.76;99219.62;4173429;34;34585;-92
2023/05/14 11:52:20;;;;;;;;;;;;;;;14.64;82.25;99219.28;4165363;34;33627;-91
2023/05/14 11:54:51;;;;;;;;;;;;;;;14.34;87.27;99216.63;4151964;34;34043;-92
2023/05/14 11:57:20;;;;;;;;;;;;;;;14.72;85.13;99218.16;4152547;34;35370;-93
2023/05/14 11:59:48;;;;;;;;;;;;;;;14.78;83.34;99211.88;4157658;34;34892;-93
2023/05/14 12:02:16;;;;;;;;;;;;;;;14.92;83.51;99212.31;4166755;34;33500;-93
2023/05/14 12:04:48;;;;;;;;;;;;;;;14.46;86.54;99200.53;4173516;34;34148;-93
2023/05/14 12:07:16;;;;;;;;;;;;;;;14.38;88.00;99199.91;4140267;34;34518;-92
2023/05/14 12:09:48;;;;;;;;;;;;;;;14.38;87.69;99197.28;4151074;34;34847;-92
2023/05/14 12:12:17;;;;;;;;;;;;;;;14.78;87.05;99188.28;4149533;34;33169;-94
2023/05/14 12:14:45;;;;;;;;;;;;;;;14.72;87.82;99178.84;4164071;34;34639;-92
2023/05/14 12:17:14;;;;;;;;;;;;;;;14.55;89.77;99175.84;4166270;34;35040;-92
2023/05/14 12:19:42;;;;;;;;;;;;;;;15.11;87.86;99172.41;4169937;34;35068;-93
2023/05/14 12:22:11;;;;;;;;;;;;;;;15.02;87.95;99172.69;4178759;34;34347;-93
2023/05/14 12:24:39;;;;;;;;;;;;;;;15.06;86.46;99162.06;4178712;34;34470;-92
2023/05/14 12:27:08;;;;;;;;;;;;;;;14.95;84.96;99157.16;4178157;34;35288;-93
2023/05/14 12:29:39;;;;;;;;;;;;;;;14.49;89.05;99157.66;4164964;34;34651;-92
2023/05/14 12:32:22;;;;;;;;;;;;;;;14.65;90.41;99163.34;4164940;34;34466;-92
2023/05/14 12:34:50;;;;;;;;;;;;;;;14.83;87.59;99162.78;4147551;34;552446;-94
2023/05/14 12:37:18;;;;;;;;;;;;;;;14.28;90.63;99159.19;4152378;34;35203;-95
2023/05/14 12:39:47;;;;;;;;;;;;;;;14.00;90.81;99157.34;4148757;34;33845;-92
2023/05/14 12:42:15;;;;;;;;;;;;;;;14.73;88.18;99158.72;4140000;34;34958;-93
2023/05/14 12:44:43;;;;;;;;;;;;;;;14.90;84.80;99164.31;4164248;34;34330;-92
2023/05/14 12:47:11;;;;;;;;;;;;;;;14.80;85.22;99165.50;4148259;34;35473;-91
2023/05/14 12:49:40;;;;;;;;;;;;;;;14.22;89.58;99155.84;4155507;34;33993;-95
2023/05/14 12:52:10;;;;;;;;;;;;;;;14.17;89.45;99147.25;4148419;34;32204;-94
2023/05/14 12:54:42;;;;;;;;;;;;;;;14.37;90.98;99135.34;4152996;34;33817;-92
2023/05/14 12:57:10;;;;;;;;;;;;;;;14.62;88.42;99137.25;4165007;34;35960;-94